createdAt,value
2023-04-07T00:00:54.598Z,8.78
2023-04-07T00:03:27.538Z,8.66
2023-04-07T00:06:00.045Z,8.74
2023-04-07T00:08:32.343Z,8.71
2023-04-07T00:11:04.758Z,8.79
2023-04-07T00:13:36.995Z,8.70
2023-04-07T00:16:09.595Z,8.71
2023-04-07T00:18:42.230Z,8.60
2023-04-07T00:21:14.464Z,8.61
2023-04-07T00:23:47.056Z,8.60
2023-04-07T00:26:19.564Z,8.59
2023-04-07T00:28:52.617Z,8.57
2023-04-07T00:31:25.141Z,8.52
2023-04-07T00:33:57.904Z,8.51
2023-04-07T00:36:31.664Z,8.49
2023-04-07T00:39:03.829Z,8.39
2023-04-07T00:41:38.082Z,8.36
2023-04-07T00:44:10.181Z,8.45
2023-04-07T00:46:42.909Z,8.36
2023-04-07T00:49:15.405Z,8.42
2023-04-07T00:51:48.024Z,8.29
2023-04-07T00:54:20.877Z,8.36
2023-04-07T00:56:53.920Z,8.32
2023-04-07T00:59:29.417Z,8.30
2023-04-07T01:02:09.786Z,8.28
2023-04-07T01:04:51.845Z,8.19
2023-04-07T01:07:30.093Z,8.19
2023-04-07T01:10:19.440Z,8.10
2023-04-07T01:13:03.640Z,8.12
2023-04-07T01:15:38.155Z,8.15
2023-04-07T01:18:16.449Z,8.16
2023-04-07T01:20:52.744Z,8.06
2023-04-07T01:23:37.742Z,7.97
2023-04-07T01:26:21.722Z,8.13
2023-04-07T01:29:06.105Z,8.11
2023-04-07T01:31:41.696Z,7.95
2023-04-07T01:34:16.016Z,8.05
2023-04-07T01:36:49.342Z,8.08
2023-04-07T01:39:22.400Z,8.05
2023-04-07T01:41:55.443Z,8.03
2023-04-07T01:44:28.834Z,7.98
2023-04-07T01:47:02.592Z,8.00
2023-04-07T01:49:37.813Z,8.08
2023-04-07T01:52:11.476Z,8.11
2023-04-07T01:54:44.253Z,8.04
2023-04-07T01:57:16.568Z,7.98
2023-04-07T01:59:49.524Z,8.01
2023-04-07T02:02:25.302Z,7.99
2023-04-07T02:05:00.461Z,8.01
2023-04-07T02:07:40.391Z,7.97
2023-04-07T02:10:16.801Z,7.92
2023-04-07T02:12:50.053Z,8.02
2023-04-07T02:15:25.009Z,8.01
2023-04-07T02:17:57.643Z,8.00
2023-04-07T02:20:31.948Z,8.03
2023-04-07T02:23:04.230Z,7.93
2023-04-07T02:25:38.344Z,7.94
2023-04-07T02:28:10.757Z,8.01
2023-04-07T02:30:43.002Z,7.94
2023-04-07T02:33:15.739Z,7.90
2023-04-07T02:35:48.837Z,7.93
2023-04-07T02:38:21.041Z,7.93
2023-04-07T02:40:53.467Z,7.92
2023-04-07T02:43:27.242Z,7.92
2023-04-07T02:45:59.415Z,7.88
2023-04-07T02:48:31.646Z,7.90
2023-04-07T02:51:04.334Z,7.87
2023-04-07T02:53:36.549Z,7.89
2023-04-07T02:56:10.071Z,7.89
2023-04-07T02:58:42.331Z,7.94
2023-04-07T03:01:15.561Z,7.93
2023-04-07T03:03:48.137Z,7.88
2023-04-07T03:06:29.233Z,7.86
2023-04-07T03:09:09.208Z,7.89
2023-04-07T03:11:41.965Z,7.86
2023-04-07T03:14:14.518Z,7.93
2023-04-07T03:16:52.274Z,7.90
2023-04-07T03:19:24.501Z,7.81
2023-04-07T03:21:58.005Z,7.82
2023-04-07T03:24:30.609Z,7.84
2023-04-07T03:27:03.848Z,7.80
2023-04-07T03:29:43.651Z,7.82
2023-04-07T03:32:16.971Z,7.79
2023-04-07T03:34:49.800Z,7.76
2023-04-07T03:37:22.730Z,7.73
2023-04-07T03:39:55.389Z,7.75
2023-04-07T03:42:32.756Z,7.74
2023-04-07T03:45:09.841Z,7.74
2023-04-07T03:47:43.865Z,7.74
2023-04-07T03:50:16.379Z,7.75
2023-04-07T03:53:16.670Z,7.80
2023-04-07T03:55:49.913Z,7.74
2023-04-07T03:58:32.027Z,7.68
2023-04-07T04:01:04.695Z,7.68
2023-04-07T04:03:37.318Z,7.61
2023-04-07T04:06:26.620Z,7.69
2023-04-07T04:09:04.250Z,7.73
2023-04-07T04:11:39.917Z,7.74
2023-04-07T04:14:13.017Z,7.72
2023-04-07T04:16:46.233Z,7.69
2023-04-07T04:19:38.720Z,7.66
2023-04-07T04:22:31.718Z,7.68
2023-04-07T04:25:04.418Z,7.66
2023-04-07T04:27:37.652Z,7.66
2023-04-07T04:30:15.907Z,7.71
2023-04-07T04:32:55.953Z,7.66
2023-04-07T04:35:34.937Z,7.57
2023-04-07T04:38:16.370Z,7.53
2023-04-07T04:40:53.336Z,7.55
2023-04-07T04:43:30.205Z,7.49
2023-04-07T04:46:03.767Z,7.51
2023-04-07T04:48:39.921Z,7.50
2023-04-07T04:51:12.127Z,7.55
2023-04-07T04:53:44.948Z,7.60
2023-04-07T04:56:17.264Z,7.56
2023-04-07T04:58:51.939Z,7.63
2023-04-07T05:01:32.796Z,7.66
2023-04-07T05:04:12.472Z,7.53
2023-04-07T05:06:49.192Z,7.54
2023-04-07T05:09:22.279Z,7.55
2023-04-07T05:11:54.871Z,7.57
2023-04-07T05:14:27.599Z,7.64
2023-04-07T05:17:03.939Z,7.68
2023-04-07T05:19:36.699Z,7.62
2023-04-07T05:22:16.003Z,7.58
2023-04-07T05:24:52.995Z,7.63
2023-04-07T05:27:25.765Z,7.67
2023-04-07T05:29:59.385Z,7.66
2023-04-07T05:32:35.424Z,7.72
2023-04-07T05:35:13.530Z,7.63
2023-04-07T05:37:49.853Z,7.73
2023-04-07T05:40:22.924Z,7.65
2023-04-07T05:42:55.733Z,7.58
2023-04-07T05:45:28.532Z,7.62
2023-04-07T05:48:02.968Z,7.65
2023-04-07T05:50:48.527Z,7.61
2023-04-07T05:53:22.682Z,7.64
2023-04-07T05:55:54.880Z,7.68
2023-04-07T05:58:34.025Z,7.56
2023-04-07T06:01:06.400Z,7.79
2023-04-07T06:03:39.257Z,7.75
2023-04-07T06:06:17.668Z,7.72
2023-04-07T06:08:50.914Z,7.76
2023-04-07T06:11:23.662Z,7.77
2023-04-07T06:13:56.422Z,7.83
2023-04-07T06:16:29.804Z,7.85
2023-04-07T06:19:02.175Z,7.87
2023-04-07T06:21:34.568Z,7.83
2023-04-07T06:24:11.337Z,7.83
2023-04-07T06:26:43.859Z,7.84
2023-04-07T06:29:16.328Z,7.85
2023-04-07T06:31:48.940Z,7.90
2023-04-07T06:34:21.224Z,7.93
2023-04-07T06:36:58.180Z,7.82
2023-04-07T06:39:31.755Z,7.88
2023-04-07T06:42:04.458Z,7.76
2023-04-07T06:44:41.361Z,7.85
2023-04-07T06:47:13.590Z,7.84
2023-04-07T06:49:45.952Z,7.89
2023-04-07T06:52:18.237Z,7.90
2023-04-07T06:54:50.398Z,7.77
2023-04-07T06:57:22.885Z,7.89
2023-04-07T06:59:55.197Z,7.91
2023-04-07T07:02:28.070Z,7.84
2023-04-07T07:05:03.939Z,7.96
2023-04-07T07:07:34.650Z,8.00
2023-04-07T07:10:07.982Z,8.10
2023-04-07T07:12:40.525Z,8.11
2023-04-07T07:15:13.778Z,8.04
2023-04-07T07:17:46.016Z,8.14
2023-04-07T07:20:18.687Z,8.13
2023-04-07T07:22:51.469Z,8.12
2023-04-07T07:25:24.150Z,8.14
2023-04-07T07:27:56.456Z,8.14
2023-04-07T07:30:28.720Z,8.18
2023-04-07T07:33:01.102Z,8.10
2023-04-07T07:35:33.635Z,8.19
2023-04-07T07:38:06.026Z,8.17
2023-04-07T07:40:38.283Z,8.15
2023-04-07T07:43:10.868Z,8.20
2023-04-07T07:45:43.293Z,8.14
2023-04-07T07:48:15.666Z,8.08
2023-04-07T07:50:49.212Z,8.32
2023-04-07T07:53:21.528Z,8.30
2023-04-07T07:55:56.094Z,8.35
2023-04-07T07:58:28.373Z,8.31
2023-04-07T08:01:00.752Z,8.28
2023-04-07T08:03:33.240Z,8.29
2023-04-07T08:06:06.607Z,8.34
2023-04-07T08:08:38.777Z,8.34
2023-04-07T08:11:11.512Z,8.28
2023-04-07T08:13:45.832Z,8.32
2023-04-07T08:16:19.540Z,8.30
2023-04-07T08:18:52.076Z,8.26
2023-04-07T08:21:24.530Z,8.25
2023-04-07T08:23:57.844Z,8.23
2023-04-07T08:26:30.568Z,8.36
2023-04-07T08:29:02.718Z,8.35
2023-04-07T08:31:34.834Z,8.36
2023-04-07T08:34:07.135Z,8.37
2023-04-07T08:36:39.602Z,8.43
2023-04-07T08:39:12.213Z,8.46
2023-04-07T08:41:45.973Z,8.46
2023-04-07T08:44:19.378Z,8.49
2023-04-07T08:46:56.058Z,8.51
2023-04-07T08:49:31.802Z,8.47
2023-04-07T08:52:09.503Z,8.46
2023-04-07T08:54:41.982Z,8.48
2023-04-07T08:57:15.869Z,8.43
2023-04-07T08:59:51.540Z,8.45
2023-04-07T09:02:24.728Z,8.49
2023-04-07T09:04:57.230Z,8.56
2023-04-07T09:07:29.732Z,8.55
2023-04-07T09:10:02.299Z,8.54
2023-04-07T09:12:37.439Z,8.57
2023-04-07T09:15:11.287Z,8.59
2023-04-07T09:17:43.968Z,8.66
2023-04-07T09:20:16.272Z,8.60
2023-04-07T09:22:50.407Z,8.69
2023-04-07T09:25:26.328Z,8.66
2023-04-07T09:28:00.768Z,8.72
2023-04-07T09:30:34.609Z,8.70
2023-04-07T09:33:07.008Z,8.71
2023-04-07T09:35:54.495Z,8.72
2023-04-07T09:38:36.085Z,8.76
2023-04-07T09:41:12.691Z,8.74
2023-04-07T09:43:46.708Z,8.69
2023-04-07T09:46:20.129Z,8.71
2023-04-07T09:49:06.273Z,8.74
2023-04-07T09:51:39.192Z,8.81
2023-04-07T09:54:11.812Z,8.86
2023-04-07T09:56:44.164Z,8.88
2023-04-07T09:59:17.737Z,8.88
2023-04-07T10:01:50.201Z,8.90
2023-04-07T10:04:23.430Z,8.91
2023-04-07T10:06:56.439Z,8.94
2023-04-07T10:09:30.150Z,8.96
2023-04-07T10:12:02.911Z,8.98
2023-04-07T10:14:38.060Z,8.99
2023-04-07T10:17:12.304Z,9.00
2023-04-07T10:19:45.609Z,9.03
2023-04-07T10:22:18.952Z,9.08
2023-04-07T10:24:57.575Z,9.08
2023-04-07T10:27:35.250Z,9.03
2023-04-07T10:30:17.107Z,9.11
2023-04-07T10:32:54.393Z,9.22
2023-04-07T10:35:28.517Z,9.10
2023-04-07T10:38:17.261Z,9.22
2023-04-07T10:40:49.677Z,9.28
2023-04-07T10:43:41.608Z,9.28
2023-04-07T10:46:14.032Z,9.22
2023-04-07T10:49:06.161Z,9.12
2023-04-07T10:51:39.060Z,9.27
2023-04-07T10:54:23.760Z,9.24
2023-04-07T10:57:15.914Z,9.33
2023-04-07T11:00:20.440Z,9.37
2023-04-07T11:02:53.058Z,9.40
2023-04-07T11:05:25.620Z,9.42
2023-04-07T11:07:59.445Z,9.36
2023-04-07T11:10:31.826Z,9.40
2023-04-07T11:13:06.954Z,9.40
2023-04-07T11:15:40.873Z,9.41
2023-04-07T11:18:17.100Z,9.43
2023-04-07T11:20:52.798Z,9.44
2023-04-07T11:23:27.467Z,9.38
2023-04-07T11:26:04.531Z,9.35
2023-04-07T11:28:38.006Z,9.39
2023-04-07T11:31:10.446Z,9.45
2023-04-07T11:33:43.857Z,9.46
2023-04-07T11:36:16.219Z,9.37
2023-04-07T11:38:48.734Z,9.46
2023-04-07T11:41:21.796Z,9.39
2023-04-07T11:44:06.941Z,9.43
2023-04-07T11:46:53.262Z,9.44
2023-04-07T11:49:27.977Z,9.43
2023-04-07T11:52:02.668Z,9.39
2023-04-07T11:54:44.256Z,9.38
2023-04-07T11:57:24.751Z,9.38
2023-04-07T12:00:11.872Z,9.37
2023-04-07T12:02:44.683Z,9.36
2023-04-07T12:05:17.310Z,9.37
2023-04-07T12:07:57.809Z,9.43
2023-04-07T12:10:30.473Z,9.44
2023-04-07T12:13:03.494Z,9.47
2023-04-07T12:15:36.894Z,9.41
2023-04-07T12:18:09.062Z,9.41
2023-04-07T12:20:41.523Z,9.42
2023-04-07T12:23:14.142Z,9.43
2023-04-07T12:25:46.671Z,9.34
2023-04-07T12:28:18.828Z,9.31
2023-04-07T12:30:51.047Z,9.37
2023-04-07T12:33:23.958Z,9.38
2023-04-07T12:35:57.205Z,9.34
2023-04-07T12:38:29.604Z,9.34
2023-04-07T12:41:03.846Z,9.28
2023-04-07T12:43:38.835Z,9.33
2023-04-07T12:46:11.103Z,9.32
2023-04-07T12:48:43.508Z,9.37
2023-04-07T12:51:16.162Z,9.39
2023-04-07T12:53:48.907Z,9.45
2023-04-07T12:56:22.576Z,9.49
2023-04-07T12:58:54.909Z,9.52
2023-04-07T13:01:27.428Z,9.48
2023-04-07T13:03:59.934Z,9.45
2023-04-07T13:06:32.588Z,9.51
2023-04-07T13:09:04.975Z,9.53
2023-04-07T13:11:37.782Z,9.55
2023-04-07T13:14:10.625Z,9.42
2023-04-07T13:16:42.909Z,9.49
2023-04-07T13:19:15.536Z,9.55
2023-04-07T13:21:48.478Z,9.56
2023-04-07T13:24:21.617Z,9.59
2023-04-07T13:26:54.471Z,9.60
2023-04-07T13:29:27.120Z,9.43
2023-04-07T13:32:08.925Z,9.43
2023-04-07T13:34:41.525Z,9.49
2023-04-07T13:37:13.996Z,9.52
2023-04-07T13:39:46.646Z,9.49
2023-04-07T13:42:20.646Z,9.51
2023-04-07T13:44:54.575Z,9.52
2023-04-07T13:47:27.077Z,9.52
2023-04-07T13:49:59.682Z,9.51
2023-04-07T13:52:35.203Z,9.51
2023-04-07T13:55:08.761Z,9.53
2023-04-07T13:57:41.691Z,9.54
2023-04-07T14:00:16.006Z,9.52
2023-04-07T14:02:49.669Z,9.44
2023-04-07T14:05:22.198Z,9.55
2023-04-07T14:07:54.707Z,9.61
2023-04-07T14:10:27.319Z,9.63
2023-04-07T14:12:59.765Z,9.59
2023-04-07T14:15:32.747Z,9.64
2023-04-07T14:18:05.223Z,9.53
2023-04-07T14:20:37.966Z,9.62
2023-04-07T14:23:10.289Z,9.68
2023-04-07T14:25:42.744Z,9.73
2023-04-07T14:28:15.672Z,9.72
2023-04-07T14:30:48.356Z,9.62
2023-04-07T14:33:20.745Z,9.56
2023-04-07T14:35:53.092Z,9.71
2023-04-07T14:38:26.077Z,9.71
2023-04-07T14:41:09.780Z,9.73
2023-04-07T14:43:42.756Z,9.79
2023-04-07T14:46:15.637Z,9.78
2023-04-07T14:48:48.969Z,9.74
2023-04-07T14:51:21.371Z,9.66
2023-04-07T14:53:56.233Z,9.74
2023-04-07T14:56:29.044Z,9.77
2023-04-07T14:59:01.792Z,9.80
2023-04-07T15:01:34.085Z,9.81
2023-04-07T15:04:06.963Z,9.80
2023-04-07T15:06:41.986Z,9.81
2023-04-07T15:09:14.438Z,9.85
2023-04-07T15:11:47.275Z,9.81
2023-04-07T15:14:19.709Z,9.81
2023-04-07T15:16:52.030Z,9.84
2023-04-07T15:19:24.413Z,9.86
2023-04-07T15:21:56.660Z,9.78
2023-04-07T15:24:29.005Z,9.84
2023-04-07T15:27:01.627Z,9.81
2023-04-07T15:29:34.315Z,9.83
2023-04-07T15:32:07.795Z,9.80
2023-04-07T15:34:40.183Z,9.80
2023-04-07T15:37:12.490Z,9.87
2023-04-07T15:39:44.591Z,9.83
2023-04-07T15:42:16.892Z,9.84
2023-04-07T15:44:49.060Z,9.86
2023-04-07T15:47:21.376Z,9.82
2023-04-07T15:49:53.876Z,9.84
2023-04-07T15:52:27.787Z,9.89
2023-04-07T15:55:00.232Z,9.94
2023-04-07T15:57:32.570Z,9.97
2023-04-07T16:00:05.706Z,9.90
2023-04-07T16:02:38.789Z,9.90
2023-04-07T16:05:12.013Z,9.83
2023-04-07T16:07:44.831Z,9.88
2023-04-07T16:10:19.894Z,9.85
2023-04-07T16:12:52.190Z,9.94
2023-04-07T16:15:38.710Z,9.93
2023-04-07T16:18:13.347Z,9.95
2023-04-07T16:20:45.715Z,9.93
2023-04-07T16:23:18.296Z,9.79
2023-04-07T16:25:50.593Z,9.88
2023-04-07T16:28:23.311Z,9.86
2023-04-07T16:30:55.786Z,9.91
2023-04-07T16:33:28.270Z,9.86
2023-04-07T16:36:00.320Z,9.87
2023-04-07T16:38:32.704Z,9.88
2023-04-07T16:41:08.029Z,9.90
2023-04-07T16:43:40.207Z,9.92
2023-04-07T16:46:12.500Z,9.86
2023-04-07T16:48:44.860Z,9.94
2023-04-07T16:51:20.365Z,9.93
2023-04-07T16:53:52.911Z,9.97
2023-04-07T16:56:26.306Z,9.97
2023-04-07T16:58:58.721Z,9.93
2023-04-07T17:01:31.974Z,9.97
2023-04-07T17:04:04.441Z,10.01
2023-04-07T17:06:36.745Z,10.04
2023-04-07T17:09:09.297Z,10.07
2023-04-07T17:11:43.436Z,10.02
2023-04-07T17:14:15.684Z,10.05
2023-04-07T17:16:47.952Z,10.11
2023-04-07T17:19:20.431Z,10.08
2023-04-07T17:21:53.147Z,10.08
2023-04-07T17:24:25.778Z,10.12
2023-04-07T17:26:58.092Z,10.08
2023-04-07T17:29:31.545Z,10.13
2023-04-07T17:32:04.342Z,10.14
2023-04-07T17:34:36.538Z,10.06
2023-04-07T17:37:08.668Z,10.06
2023-04-07T17:39:40.965Z,10.05
2023-04-07T17:42:13.330Z,10.12
2023-04-07T17:44:45.675Z,10.13
2023-04-07T17:47:17.959Z,10.16
2023-04-07T17:49:50.213Z,10.17
2023-04-07T17:52:22.832Z,10.17
2023-04-07T17:54:55.238Z,10.19
2023-04-07T17:57:27.754Z,10.22
2023-04-07T18:00:00.313Z,10.20
2023-04-07T18:02:33.275Z,10.18
2023-04-07T18:05:09.168Z,10.17
2023-04-07T18:07:41.525Z,10.18
2023-04-07T18:10:14.384Z,10.19
2023-04-07T18:12:46.841Z,10.19
2023-04-07T18:15:19.177Z,10.19
2023-04-07T18:17:53.300Z,10.17
2023-04-07T18:20:26.034Z,10.06
2023-04-07T18:22:58.608Z,10.18
2023-04-07T18:25:31.270Z,10.18
2023-04-07T18:28:04.261Z,10.24
2023-04-07T18:30:37.527Z,10.24
2023-04-07T18:33:10.093Z,10.23
2023-04-07T18:35:42.702Z,10.22
2023-04-07T18:38:15.053Z,10.25
2023-04-07T18:40:47.386Z,10.24
2023-04-07T18:43:19.732Z,10.22
2023-04-07T18:45:53.317Z,10.24
2023-04-07T18:48:26.410Z,10.26
2023-04-07T18:50:59.034Z,10.22
2023-04-07T18:53:32.246Z,10.23
2023-04-07T18:56:04.946Z,10.27
2023-04-07T18:58:43.770Z,10.29
2023-04-07T19:01:16.782Z,10.29
2023-04-07T19:03:49.594Z,10.29
2023-04-07T19:06:22.267Z,10.30
2023-04-07T19:08:55.911Z,10.31
2023-04-07T19:11:28.227Z,10.24
2023-04-07T19:14:00.773Z,10.34
2023-04-07T19:16:34.904Z,10.38
2023-04-07T19:19:08.937Z,10.36
2023-04-07T19:21:41.467Z,10.38
2023-04-07T19:24:14.403Z,10.40
2023-04-07T19:26:47.191Z,10.46
2023-04-07T19:29:19.726Z,10.49
2023-04-07T19:31:53.425Z,10.52
2023-04-07T19:34:26.297Z,10.44
2023-04-07T19:36:59.182Z,10.41
2023-04-07T19:39:31.695Z,10.44
2023-04-07T19:42:03.983Z,10.44
2023-04-07T19:44:37.615Z,10.55
2023-04-07T19:47:09.992Z,10.61
2023-04-07T19:49:42.649Z,10.60
2023-04-07T19:52:14.920Z,10.63
2023-04-07T19:54:47.208Z,10.59
2023-04-07T19:57:19.613Z,10.57
2023-04-07T19:59:51.864Z,10.59
2023-04-07T20:02:24.705Z,10.59
2023-04-07T20:04:58.605Z,10.59
2023-04-07T20:07:31.084Z,10.62
2023-04-07T20:10:04.161Z,10.65
2023-04-07T20:12:36.347Z,10.65
2023-04-07T20:15:11.188Z,10.63
2023-04-07T20:17:41.795Z,10.53
2023-04-07T20:20:15.112Z,10.52
2023-04-07T20:22:47.429Z,10.56
2023-04-07T20:25:20.058Z,10.62
2023-04-07T20:27:52.340Z,10.62
2023-04-07T20:30:24.369Z,10.61
2023-04-07T20:32:56.901Z,10.58
2023-04-07T20:35:29.606Z,10.61
2023-04-07T20:38:02.866Z,10.62
2023-04-07T20:40:37.364Z,10.62
2023-04-07T20:43:09.925Z,10.61
2023-04-07T20:45:42.277Z,10.59
2023-04-07T20:48:15.688Z,10.63
2023-04-07T20:50:48.528Z,10.66
2023-04-07T20:53:21.073Z,10.62
2023-04-07T20:55:53.526Z,10.59
2023-04-07T20:58:25.910Z,10.61
2023-04-07T21:01:00.976Z,10.67
2023-04-07T21:03:35.969Z,10.69
2023-04-07T21:06:08.912Z,10.68
2023-04-07T21:08:41.308Z,10.65
2023-04-07T21:11:13.511Z,10.69
2023-04-07T21:13:45.913Z,10.73
2023-04-07T21:16:18.239Z,10.76
2023-04-07T21:18:50.929Z,10.74
2023-04-07T21:21:23.404Z,10.74
2023-04-07T21:23:55.780Z,10.77
2023-04-07T21:26:28.194Z,10.73
2023-04-07T21:29:00.455Z,10.63
2023-04-07T21:31:33.853Z,10.68
2023-04-07T21:34:06.378Z,10.71
2023-04-07T21:36:40.246Z,10.61
2023-04-07T21:39:12.601Z,10.60
2023-04-07T21:41:45.509Z,10.57
2023-04-07T21:44:20.280Z,10.52
2023-04-07T21:46:50.999Z,10.57
2023-04-07T21:49:25.339Z,10.61
2023-04-07T21:51:58.203Z,10.63
2023-04-07T21:54:30.620Z,10.65
2023-04-07T21:57:03.244Z,10.42
2023-04-07T21:59:36.134Z,10.55
2023-04-07T22:02:08.283Z,10.57
2023-04-07T22:04:41.456Z,10.61
2023-04-07T22:07:14.118Z,10.61
2023-04-07T22:09:46.267Z,10.62
2023-04-07T22:12:18.502Z,10.57
2023-04-07T22:14:51.135Z,10.57
2023-04-07T22:17:24.159Z,10.45
2023-04-07T22:19:56.352Z,10.49
2023-04-07T22:22:28.710Z,10.51
2023-04-07T22:25:01.644Z,10.43
2023-04-07T22:27:35.376Z,10.35
2023-04-07T22:30:10.952Z,10.38
2023-04-07T22:32:43.180Z,10.39
2023-04-07T22:35:15.741Z,10.34
2023-04-07T22:37:48.310Z,10.13
2023-04-07T22:40:21.030Z,10.29
2023-04-07T22:42:53.392Z,10.16
2023-04-07T22:45:26.052Z,10.25
2023-04-07T22:47:58.061Z,10.19
2023-04-07T22:50:30.547Z,10.12
2023-04-07T22:53:03.547Z,10.16
2023-04-07T22:55:36.373Z,10.08
2023-04-07T22:58:08.495Z,10.04
2023-04-07T23:00:40.780Z,10.06
2023-04-07T23:03:14.857Z,10.00
2023-04-07T23:05:47.506Z,9.78
2023-04-07T23:08:20.298Z,9.93
2023-04-07T23:10:52.411Z,9.91
2023-04-07T23:13:24.568Z,9.83
2023-04-07T23:15:56.714Z,9.81
2023-04-07T23:18:29.000Z,9.82
2023-04-07T23:21:02.045Z,9.85
2023-04-07T23:23:34.169Z,9.88
2023-04-07T23:26:07.043Z,9.89
2023-04-07T23:28:39.411Z,9.81
2023-04-07T23:31:11.827Z,9.88
2023-04-07T23:33:44.247Z,9.88
2023-04-07T23:36:16.708Z,9.85
2023-04-07T23:38:49.566Z,9.80
2023-04-07T23:41:21.958Z,9.75
2023-04-07T23:43:54.449Z,9.78
2023-04-07T23:46:26.982Z,9.75
2023-04-07T23:48:59.596Z,9.72
2023-04-07T23:51:31.878Z,9.73
2023-04-07T23:54:04.237Z,9.71
2023-04-07T23:56:36.675Z,9.72
2023-04-07T23:59:08.841Z,9.73
